Time;durP1;ratioP1;P1;durP2;ratioP2;P2;SDS_P1;SDS_P2;PMS_P1;PMS_P2;Temp;Humidity;BMP_temperature;BMP_pressure;BME280_temperature;BME280_humidity;BME280_pressure;Samples;Min_cycle;Max_cycle;Signal;HPM_P1;HPM_P2
2021/06/05 00:01:35;;;;;;;11.93;4.37;;;;;;;15.35;78.10;101780.02;1632797;87;20943;-76
2021/06/05 00:04:02;;;;;;;5.60;4.03;;;;;;;15.33;78.40;101774.91;1631546;87;21086;-75
2021/06/05 00:06:30;;;;;;;6.85;4.45;;;;;;;15.27;78.57;101775.33;1632800;87;20935;-71
2021/06/05 00:08:57;;;;;;;7.08;4.03;;;;;;;15.23;78.77;101773.86;1632701;87;21966;-71
2021/06/05 00:11:28;;;;;;;8.08;3.77;;;;;;;15.22;79.17;101776.59;1632684;87;21043;-72
2021/06/05 00:13:59;;;;;;;5.15;4.40;;;;;;;15.19;79.80;101770.23;1632766;87;20955;-72
2021/06/05 00:16:36;;;;;;;6.12;4.30;;;;;;;15.15;80.62;101767.02;1664861;86;20976;-73
2021/06/05 00:19:04;;;;;;;7.10;4.62;;;;;;;15.13;81.23;101764.95;1632549;87;21568;-75
2021/06/05 00:21:31;;;;;;;10.13;4.50;;;;;;;15.11;81.73;101770.77;1632735;87;21163;-74
2021/06/05 00:23:59;;;;;;;7.35;4.10;;;;;;;15.10;82.15;101769.55;1664549;86;21062;-71
2021/06/05 00:26:25;;;;;;;8.60;4.15;;;;;;;15.09;82.45;101767.41;1632674;87;21037;-71
2021/06/05 00:28:52;;;;;;;5.72;4.20;;;;;;;15.10;82.74;101769.09;1632543;87;21075;-70
2021/06/05 00:31:21;;;;;;;6.42;4.60;;;;;;;15.09;82.96;101764.79;1632672;87;21087;-71
2021/06/05 00:33:48;;;;;;;5.30;4.20;;;;;;;15.07;83.32;101761.45;1632695;87;21154;-73
2021/06/05 00:36:17;;;;;;;10.00;5.12;;;;;;;15.04;83.89;101757.73;1632599;87;21027;-74
2021/06/05 00:38:44;;;;;;;5.33;4.22;;;;;;;15.02;84.26;101764.86;1632593;87;20932;-71
2021/06/05 00:41:13;;;;;;;6.35;4.50;;;;;;;14.98;84.48;101763.84;1664936;86;21030;-72
2021/06/05 00:43:43;;;;;;;5.83;4.40;;;;;;;14.94;84.78;101771.05;1664742;86;20983;-76
2021/06/05 00:46:11;;;;;;;9.05;5.20;;;;;;;14.90;85.19;101760.42;1664749;86;21160;-73
2021/06/05 00:48:38;;;;;;;10.15;5.28;;;;;;;14.85;85.80;101758.59;1632602;87;21007;-73
2021/06/05 00:51:06;;;;;;;5.85;4.78;;;;;;;14.82;86.29;101766.19;1664788;86;22035;-73
2021/06/05 00:53:35;;;;;;;10.80;5.22;;;;;;;14.79;86.67;101764.23;1632809;87;20983;-81
2021/06/05 00:56:04;;;;;;;8.85;4.60;;;;;;;14.79;87.11;101766.84;1648546;87;21123;-72
2021/06/05 00:58:31;;;;;;;8.03;4.72;;;;;;;14.79;87.46;101766.38;1632575;87;21881;-77
2021/06/05 01:01:16;;;;;;;6.42;3.95;;;;;;;14.81;87.34;101764.96;1632413;87;21007;-77
2021/06/05 01:03:45;;;;;;;7.80;4.10;;;;;;;14.80;87.20;101758.89;1642818;86;21019;-74
2021/06/05 01:06:18;;;;;;;6.42;4.42;;;;;;;14.78;87.06;101752.10;1667775;86;20935;-75
2021/06/05 01:09:08;;;;;;;10.50;4.55;;;;;;;14.75;86.98;101749.69;1676788;85;21014;-72
2021/06/05 01:12:03;;;;;;;6.35;4.53;;;;;;;14.76;86.90;101753.52;1634584;87;21767;-78
2021/06/05 01:14:49;;;;;;;6.85;4.35;;;;;;;14.76;86.77;101756.14;1645285;87;21010;-73
2021/06/05 01:17:19;;;;;;;5.05;4.40;;;;;;;14.74;86.73;101751.46;1646345;86;21517;-76
2021/06/05 01:20:12;;;;;;;4.97;4.08;;;;;;;14.75;86.74;101760.14;1642974;86;20959;-78
2021/06/05 01:23:06;;;;;;;;;;;;;;;14.75;86.72;101758.84;1670173;86;21719;-73
2021/06/05 01:25:54;;;;;;;;;;;;;;;14.74;86.61;101757.19;1670251;86;20809;-75
2021/06/05 01:28:33;;;;;;;8.53;4.33;;;;;;;14.70;86.52;101754.39;1667401;86;20581;-71
2021/06/05 01:31:06;;;;;;;6.78;4.70;;;;;;;14.64;86.64;101754.34;1615714;86;21022;-75
2021/06/05 01:33:35;;;;;;;11.12;4.30;;;;;;;14.61;86.84;101753.23;1646638;87;21014;-72
2021/06/05 01:36:04;;;;;;;9.03;4.78;;;;;;;14.60;87.09;101750.70;1667482;86;21041;-76
2021/06/05 01:38:36;;;;;;;10.10;4.30;;;;;;;14.57;87.15;101749.60;1667959;86;22016;-80
2021/06/05 01:41:05;;;;;;;8.63;4.95;;;;;;;14.52;87.29;101752.50;1646722;87;21009;-73
2021/06/05 01:43:33;;;;;;;9.23;4.33;;;;;;;14.53;87.42;101757.27;1667781;86;21014;-78
2021/06/05 01:46:01;;;;;;;7.80;4.33;;;;;;;14.53;87.50;101754.19;1667659;86;20971;-77
2021/06/05 01:48:28;;;;;;;8.65;4.30;;;;;;;14.57;87.51;101754.83;1667646;86;21446;-71
2021/06/05 01:50:55;;;;;;;8.53;4.85;;;;;;;14.55;87.49;101752.80;1646658;87;21898;-75
2021/06/05 01:53:29;;;;;;;6.28;4.65;;;;;;;14.58;87.60;101753.90;1667487;86;20995;-74
2021/06/05 01:56:01;;;;;;;5.00;4.47;;;;;;;14.62;87.64;101759.27;1667695;86;21007;-72
2021/06/05 01:58:30;;;;;;;8.70;4.78;;;;;;;14.63;87.91;101756.57;1646664;87;21548;-74
2021/06/05 02:01:00;;;;;;;12.05;4.95;;;;;;;14.63;88.32;101752.66;1645812;87;21077;-75
2021/06/05 02:03:28;;;;;;;7.28;4.90;;;;;;;14.64;88.53;101748.27;1646509;86;21186;-81
2021/06/05 02:05:58;;;;;;;8.13;4.50;;;;;;;14.66;88.74;101760.29;1663932;86;21470;-73
2021/06/05 02:08:27;;;;;;;7.75;4.60;;;;;;;14.67;88.92;101754.59;1667540;86;20911;-76
2021/06/05 02:11:03;;;;;;;6.92;4.60;;;;;;;14.66;89.31;101748.53;1642100;87;21014;-70
2021/06/05 02:16:24;;;;;;;6.45;5.17;;;;;;;14.65;89.74;101759.06;1691567;84;21167;-82
2021/06/05 02:18:59;;;;;;;7.80;5.17;;;;;;;14.65;89.96;101757.30;1702618;84;20959;-70
2021/06/05 02:21:30;;;;;;;8.15;5.40;;;;;;;14.64;90.18;101756.95;1691184;84;21478;-70
2021/06/05 02:24:07;;;;;;;12.33;5.15;;;;;;;14.62;90.65;101756.66;1699920;84;20975;-70
2021/06/05 02:26:38;;;;;;;8.68;5.30;;;;;;;14.61;90.77;101750.62;1671507;84;20999;-74
2021/06/05 02:29:05;;;;;;;8.50;5.62;;;;;;;14.61;90.98;101751.09;1700091;84;21150;-74
2021/06/05 02:31:32;;;;;;;10.03;4.92;;;;;;;14.59;90.98;101752.94;1700011;84;20995;-74
2021/06/05 02:33:59;;;;;;;7.60;5.37;;;;;;;14.56;90.96;101755.29;1692771;84;20960;-74
2021/06/05 02:36:26;;;;;;;7.65;4.80;;;;;;;14.55;91.07;101754.10;1670228;84;20996;-74
2021/06/05 02:38:53;;;;;;;8.98;4.97;;;;;;;14.53;91.17;101748.13;1692751;84;21585;-71
2021/06/05 02:41:23;;;;;;;7.65;4.95;;;;;;;14.52;91.59;101749.89;1692032;84;21242;-69
2021/06/05 02:43:52;;;;;;;7.80;5.25;;;;;;;14.52;91.95;101747.28;1702647;84;20872;-69
2021/06/05 02:46:25;;;;;;;10.48;4.75;;;;;;;14.52;91.97;101753.00;1674608;84;20963;-74
2021/06/05 02:48:56;;;;;;;8.95;5.10;;;;;;;14.49;92.01;101751.86;1692840;84;20947;-71
2021/06/05 02:51:38;;;;;;;9.33;4.78;;;;;;;14.50;92.02;101752.23;1698790;84;21101;-69
2021/06/05 02:54:06;;;;;;;8.50;4.42;;;;;;;14.48;91.92;101752.36;1692833;84;21182;-73
2021/06/05 02:56:33;;;;;;;8.63;5.40;;;;;;;14.50;91.79;101750.93;1702319;84;21013;-76
2021/06/05 02:59:01;;;;;;;6.95;4.45;;;;;;;14.51;91.57;101753.45;1674326;84;20943;-72
2021/06/05 03:01:29;;;;;;;8.08;5.00;;;;;;;14.55;91.38;101758.02;1691790;84;20955;-71
2021/06/05 03:04:01;;;;;;;8.70;4.92;;;;;;;14.58;91.30;101753.41;1699914;84;21402;-75
2021/06/05 03:06:29;;;;;;;9.98;4.95;;;;;;;14.59;91.05;101752.48;1692905;84;21146;-77
2021/06/05 03:08:58;;;;;;;11.12;5.40;;;;;;;14.61;90.85;101757.16;1665013;84;21114;-77
2021/06/05 03:11:27;;;;;;;5.90;4.17;;;;;;;14.59;90.85;101744.64;1702697;84;20943;-79
2021/06/05 03:13:56;;;;;;;5.47;4.72;;;;;;;14.60;90.68;101750.70;1692653;84;21493;-73
2021/06/05 03:16:23;;;;;;;12.55;5.05;;;;;;;14.60;90.57;101745.48;1691757;83;21084;-76
2021/06/05 03:18:52;;;;;;;10.95;5.37;;;;;;;14.62;90.50;101745.74;1720064;83;21134;-75
2021/06/05 03:21:19;;;;;;;7.92;4.67;;;;;;;14.66;90.45;101745.92;1720648;83;20948;-76
2021/06/05 03:23:48;;;;;;;6.30;5.60;;;;;;;14.68;90.35;101738.80;1720782;83;20925;-72
2021/06/05 03:26:18;;;;;;;8.63;4.80;;;;;;;14.69;90.21;101747.02;1720551;83;21025;-76
2021/06/05 03:28:45;;;;;;;6.40;5.03;;;;;;;14.72;90.26;101742.05;1694500;83;21051;-71
2021/06/05 03:31:13;;;;;;;9.73;5.12;;;;;;;14.72;90.16;101744.67;1720740;83;21081;-71
2021/06/05 03:33:41;;;;;;;8.38;5.45;;;;;;;14.74;90.07;101737.59;1720412;83;21007;-79
2021/06/05 03:36:09;;;;;;;9.75;5.45;;;;;;;14.77;90.11;101737.38;1720965;83;20986;-73
2021/06/05 03:38:40;;;;;;;9.60;5.40;;;;;;;14.81;90.01;101742.75;1720518;83;21003;-72
2021/06/05 03:41:06;;;;;;;12.73;6.37;;;;;;;14.87;89.95;101738.42;1720567;83;21534;-70
2021/06/05 03:43:34;;;;;;;8.93;5.35;;;;;;;14.93;89.79;101741.95;1720692;83;21127;-71
2021/06/05 03:46:04;;;;;;;9.00;5.53;;;;;;;14.99;89.80;101736.78;1720902;83;21052;-72
2021/06/05 03:48:31;;;;;;;8.38;4.75;;;;;;;15.04;89.74;101732.06;1720761;83;21027;-71
2021/06/05 03:51:00;;;;;;;8.23;5.22;;;;;;;15.12;89.80;101741.08;1720712;83;21480;-71
2021/06/05 03:53:27;;;;;;;8.08;4.70;;;;;;;15.21;89.79;101743.06;1720421;83;21032;-76
2021/06/05 03:55:55;;;;;;;7.62;4.87;;;;;;;15.29;89.96;101742.06;1720598;83;20913;-76
2021/06/05 03:58:30;;;;;;;8.03;5.10;;;;;;;15.34;90.27;101737.83;1720594;83;21051;-72
2021/06/05 04:00:59;;;;;;;12.73;5.53;;;;;;;15.35;90.42;101742.09;1720584;83;21097;-77
2021/06/05 04:03:26;;;;;;;9.08;5.35;;;;;;;15.42;90.58;101745.13;1720603;83;20953;-74
2021/06/05 04:05:53;;;;;;;7.65;5.15;;;;;;;15.47;90.63;101749.13;1720484;83;20995;-79
2021/06/05 04:08:20;;;;;;;6.97;4.97;;;;;;;15.56;90.94;101754.22;1720589;83;21135;-73
2021/06/05 04:10:47;;;;;;;8.75;5.05;;;;;;;15.61;90.85;101754.72;1720697;83;20952;-71
2021/06/05 04:13:15;;;;;;;8.83;5.42;;;;;;;15.65;90.77;101757.03;1720460;83;21039;-74
2021/06/05 04:15:42;;;;;;;7.60;5.72;;;;;;;15.68;90.35;101756.81;1725651;83;21657;-73
2021/06/05 04:18:18;;;;;;;11.25;5.87;;;;;;;15.70;90.20;101758.84;1730653;83;20963;-77
2021/06/05 04:20:46;;;;;;;11.22;6.30;;;;;;;15.71;89.94;101751.83;1726100;83;21091;-80
2021/06/05 04:23:15;;;;;;;10.10;5.60;;;;;;;15.72;89.66;101746.50;1730660;83;20999;-74
2021/06/05 04:25:43;;;;;;;6.72;5.25;;;;;;;15.73;89.43;101751.27;1730883;83;21019;-76
2021/06/05 04:28:12;;;;;;;7.40;5.58;;;;;;;15.74;89.47;101749.00;1730648;83;21050;-71
2021/06/05 04:30:40;;;;;;;10.48;5.60;;;;;;;15.73;89.65;101745.53;1730776;83;21542;-74
2021/06/05 04:33:08;;;;;;;8.48;5.53;;;;;;;15.77;89.82;101752.70;1730746;83;21191;-73
2021/06/05 04:35:35;;;;;;;8.30;5.58;;;;;;;15.81;89.83;101751.09;1730734;83;20976;-72
2021/06/05 04:38:03;;;;;;;7.22;6.03;;;;;;;15.84;89.80;101752.64;1730755;83;21111;-75
2021/06/05 04:40:30;;;;;;;10.32;6.12;;;;;;;15.86;89.49;101755.52;1730678;83;21002;-73
2021/06/05 04:42:57;;;;;;;9.08;5.42;;;;;;;15.89;89.43;101761.84;1730841;83;21125;-76
2021/06/05 04:45:24;;;;;;;8.83;5.80;;;;;;;15.92;89.28;101761.28;1730858;83;21133;-72
2021/06/05 04:47:51;;;;;;;7.62;5.25;;;;;;;15.96;89.41;101760.09;1730605;83;21401;-79
2021/06/05 04:50:22;;;;;;;7.97;4.80;;;;;;;16.00;89.48;101758.47;1730878;83;20941;-77
2021/06/05 04:52:48;;;;;;;10.25;5.80;;;;;;;16.05;89.26;101758.96;1730802;83;20964;-77
2021/06/05 04:55:15;;;;;;;7.70;5.90;;;;;;;16.09;89.27;101759.58;1730776;83;20960;-73
2021/06/05 04:57:42;;;;;;;6.97;6.00;;;;;;;16.13;88.74;101760.58;1730730;83;21181;-70
2021/06/05 05:00:12;;;;;;;11.18;5.30;;;;;;;16.17;88.77;101760.73;1730898;83;21524;-76
2021/06/05 05:02:40;;;;;;;9.00;5.45;;;;;;;16.23;88.51;101757.66;1730711;82;21015;-80
2021/06/05 05:05:08;;;;;;;8.95;5.05;;;;;;;16.29;88.35;101758.53;1703846;83;20975;-71
2021/06/05 05:07:36;;;;;;;11.10;5.30;;;;;;;16.34;88.30;101756.39;1730686;83;20960;-73
2021/06/05 05:10:05;;;;;;;8.85;5.72;;;;;;;16.43;87.76;101756.22;1730503;83;21150;-70
2021/06/05 05:12:32;;;;;;;8.95;6.08;;;;;;;16.50;87.25;101761.81;1730570;83;21031;-73
2021/06/05 05:15:00;;;;;;;9.90;5.37;;;;;;;16.55;86.58;101756.66;1730205;81;21007;-71
2021/06/05 05:17:33;;;;;;;7.67;5.37;;;;;;;16.61;86.69;101754.89;1722214;83;21015;-73
2021/06/05 05:19:59;;;;;;;10.53;5.05;;;;;;;16.69;86.45;101754.30;1722382;83;20865;-76
2021/06/05 05:22:26;;;;;;;10.80;5.35;;;;;;;16.75;86.05;101753.88;1722145;83;21073;-75
2021/06/05 05:24:53;;;;;;;7.70;5.03;;;;;;;16.82;85.90;101751.13;1722589;83;20964;-78
2021/06/05 05:27:21;;;;;;;8.35;5.58;;;;;;;16.90;85.66;101751.41;1722544;83;21112;-73
2021/06/05 05:29:50;;;;;;;8.88;5.45;;;;;;;17.00;85.62;101747.63;1722309;83;21519;-79
2021/06/05 05:32:17;;;;;;;10.72;6.30;;;;;;;17.07;85.53;101744.39;1722470;83;21479;-74
2021/06/05 05:34:44;;;;;;;11.80;5.33;;;;;;;17.15;85.08;101746.45;1722630;83;21482;-74
2021/06/05 05:37:11;;;;;;;7.72;4.85;;;;;;;17.26;83.02;101747.79;1722249;83;20913;-73
2021/06/05 05:39:40;;;;;;;8.98;5.60;;;;;;;17.37;79.77;101742.53;1722487;83;21039;-74
2021/06/05 05:42:08;;;;;;;12.98;5.25;;;;;;;17.48;78.82;101745.18;1722774;83;21036;-77
2021/06/05 05:44:35;;;;;;;9.78;5.42;;;;;;;17.55;79.58;101741.59;1722420;83;20964;-72
2021/06/05 05:47:04;;;;;;;10.95;5.00;;;;;;;17.60;78.11;101745.56;1722313;83;21871;-72
2021/06/05 05:49:32;;;;;;;9.13;5.20;;;;;;;17.65;78.07;101747.33;1722350;83;21518;-71
2021/06/05 05:51:59;;;;;;;9.13;4.90;;;;;;;17.72;77.80;101749.00;1722367;83;21040;-69
2021/06/05 05:54:26;;;;;;;13.53;5.25;;;;;;;17.77;78.27;101747.67;1722309;83;21122;-72
2021/06/05 05:56:54;;;;;;;10.98;4.92;;;;;;;17.87;78.10;101751.72;1722419;83;21084;-70
2021/06/05 05:59:21;;;;;;;10.32;5.35;;;;;;;17.96;77.44;101743.95;1722295;83;21050;-72
2021/06/05 06:01:48;;;;;;;11.22;5.03;;;;;;;18.06;75.74;101746.67;1722352;83;20913;-72
2021/06/05 06:04:16;;;;;;;7.60;4.58;;;;;;;18.12;75.81;101746.20;1722760;83;20925;-73
2021/06/05 06:06:43;;;;;;;9.50;4.53;;;;;;;18.22;75.42;101746.30;1722566;83;21016;-71
2021/06/05 06:09:11;;;;;;;10.00;5.30;;;;;;;18.27;73.42;101746.27;1722368;83;21120;-75
2021/06/05 06:11:43;;;;;;;15.43;5.87;;;;;;;18.32;73.46;101746.72;1722529;83;21153;-75
2021/06/05 06:14:09;;;;;;;8.03;5.25;;;;;;;18.40;73.37;101746.95;1722211;83;21031;-73
2021/06/05 06:16:36;;;;;;;7.83;5.47;;;;;;;18.52;72.70;101745.13;1727074;83;21007;-72
2021/06/05 06:19:03;;;;;;;7.40;5.05;;;;;;;18.63;72.64;101747.73;1730579;83;21006;-70
2021/06/05 06:21:30;;;;;;;9.53;4.97;;;;;;;18.73;72.50;101738.09;1730813;83;20912;-72
2021/06/05 06:23:57;;;;;;;10.38;5.45;;;;;;;18.81;71.63;101740.94;1730548;83;21084;-70
2021/06/05 06:26:27;;;;;;;7.95;5.15;;;;;;;18.90;71.63;101738.84;1730434;83;21071;-72
2021/06/05 06:28:56;;;;;;;8.23;4.60;;;;;;;18.96;71.55;101739.64;1730727;83;20991;-72
2021/06/05 06:31:25;;;;;;;10.53;5.37;;;;;;;19.01;71.51;101739.27;1730746;83;20948;-74
2021/06/05 06:33:52;;;;;;;6.60;3.87;;;;;;;19.08;71.66;101737.77;1730678;83;21107;-74
2021/06/05 06:36:19;;;;;;;6.80;4.37;;;;;;;19.18;70.74;101739.97;1730862;82;21129;-76
2021/06/05 06:38:47;;;;;;;6.20;4.37;;;;;;;19.27;70.70;101740.49;1730669;82;20956;-73
2021/06/05 06:41:19;;;;;;;8.75;4.78;;;;;;;19.36;70.62;101745.00;1730924;83;20929;-70
2021/06/05 06:43:46;;;;;;;11.55;5.20;;;;;;;19.42;70.19;101734.45;1730889;83;21000;-72
2021/06/05 06:46:20;;;;;;;4.83;4.33;;;;;;;19.51;70.31;101741.07;1730530;83;21116;-75
2021/06/05 06:48:50;;;;;;;9.70;4.75;;;;;;;19.56;69.41;101736.70;1730903;82;21153;-77
2021/06/05 06:51:17;;;;;;;6.50;4.37;;;;;;;19.59;70.45;101735.63;1730727;83;21062;-75
2021/06/05 06:53:45;;;;;;;8.45;4.87;;;;;;;19.63;70.98;101729.11;1730761;83;21008;-71
2021/06/05 06:56:12;;;;;;;6.95;4.08;;;;;;;19.72;70.69;101732.28;1731069;83;21106;-70
2021/06/05 06:58:41;;;;;;;11.93;5.17;;;;;;;19.76;70.16;101731.86;1731163;83;20916;-75
2021/06/05 07:01:09;;;;;;;7.80;4.80;;;;;;;19.82;69.68;101723.89;1730922;83;21564;-74
2021/06/05 07:03:36;;;;;;;7.08;4.42;;;;;;;19.89;69.09;101728.50;1730806;83;21031;-73
2021/06/05 07:06:04;;;;;;;8.80;3.75;;;;;;;19.94;69.20;101718.37;1730878;83;21632;-75
2021/06/05 07:08:40;;;;;;;6.35;4.30;;;;;;;19.98;68.70;101717.63;1730836;83;21577;-69
2021/06/05 07:11:13;;;;;;;7.65;4.28;;;;;;;20.04;66.68;101714.44;1731035;83;20968;-70
2021/06/05 07:13:42;;;;;;;9.20;4.03;;;;;;;20.09;66.55;101718.83;1730850;83;21842;-71
2021/06/05 07:16:09;;;;;;;5.47;3.72;;;;;;;20.16;66.35;101713.84;1728785;81;20960;-77
2021/06/05 07:18:37;;;;;;;7.37;3.55;;;;;;;20.19;65.05;101717.05;1722833;83;21071;-70
2021/06/05 07:21:08;;;;;;;7.17;4.30;;;;;;;20.21;63.81;101719.05;1722935;83;21016;-74
2021/06/05 07:23:35;;;;;;;9.28;3.90;;;;;;;20.25;63.49;101720.45;1722904;83;21539;-71
2021/06/05 07:26:07;;;;;;;5.30;4.15;;;;;;;20.31;63.70;101720.41;1722722;83;21333;-72
2021/06/05 07:28:41;;;;;;;;;;;;;;;20.36;63.03;101717.69;1725507;83;21052;-73
2021/06/05 07:31:09;;;;;;;7.67;4.28;;;;;;;20.42;63.83;101718.96;1723094;83;20181;-71
2021/06/05 07:33:37;;;;;;;11.73;4.12;;;;;;;20.49;63.85;101717.41;1722639;83;21000;-72
2021/06/05 07:36:05;;;;;;;4.28;3.62;;;;;;;20.53;63.35;101715.69;1722519;83;21131;-71
2021/06/05 07:38:32;;;;;;;7.67;4.72;;;;;;;20.59;62.22;101712.97;1722411;83;21562;-72
2021/06/05 07:40:59;;;;;;;5.53;4.33;;;;;;;20.63;62.82;101713.04;1722554;83;21468;-72
2021/06/05 07:43:28;;;;;;;5.05;3.77;;;;;;;20.65;63.65;101709.77;1722610;83;21546;-75
2021/06/05 07:45:56;;;;;;;6.92;3.75;;;;;;;20.72;63.17;101704.76;1722525;83;21000;-69
2021/06/05 07:48:25;;;;;;;5.35;3.20;;;;;;;20.78;56.99;101702.39;1722420;83;21467;-74
2021/06/05 07:50:52;;;;;;;10.65;4.00;;;;;;;20.84;58.37;101703.13;1722254;83;21122;-70
2021/06/05 07:53:19;;;;;;;7.08;3.87;;;;;;;20.93;58.41;101698.83;1722556;83;20961;-76
2021/06/05 07:55:47;;;;;;;6.28;3.92;;;;;;;21.01;56.19;101701.09;1722674;83;21668;-72
2021/06/05 07:58:14;;;;;;;8.28;3.37;;;;;;;21.05;56.46;101690.59;1722430;83;20956;-72
2021/06/05 08:00:41;;;;;;;12.15;3.15;;;;;;;21.13;55.55;101687.25;1722615;83;21032;-72
2021/06/05 08:03:08;;;;;;;8.58;2.90;;;;;;;21.22;54.45;101679.78;1722427;83;21574;-72
2021/06/05 08:05:36;;;;;;;5.25;3.55;;;;;;;21.29;51.95;101682.19;1722335;82;21542;-78
2021/06/05 08:08:04;;;;;;;4.28;2.95;;;;;;;21.32;52.60;101681.06;1722641;83;21071;-76
2021/06/05 08:10:32;;;;;;;4.85;2.75;;;;;;;21.36;50.50;101675.84;1722596;83;21618;-73
2021/06/05 08:12:58;;;;;;;3.50;2.95;;;;;;;21.45;51.49;101677.11;1722436;83;20908;-73
2021/06/05 08:15:32;;;;;;;4.55;2.77;;;;;;;21.53;51.58;101671.10;1722461;83;21125;-78
2021/06/05 08:18:00;;;;;;;5.60;3.27;;;;;;;21.60;52.86;101672.98;1722414;83;21000;-75
2021/06/05 08:20:33;;;;;;;9.60;3.30;;;;;;;21.67;53.97;101675.03;1722530;83;20948;-76
2021/06/05 08:23:01;;;;;;;6.72;3.08;;;;;;;21.77;53.80;101670.04;1721302;83;21020;-75
2021/06/05 08:25:29;;;;;;;4.00;2.95;;;;;;;21.87;53.52;101669.48;1722582;83;20957;-72
2021/06/05 08:27:56;;;;;;;6.10;3.40;;;;;;;21.93;52.03;101674.69;1722494;83;21119;-74
2021/06/05 08:30:28;;;;;;;6.40;3.05;;;;;;;21.96;52.16;101674.39;1722502;83;21047;-75
2021/06/05 08:32:55;;;;;;;5.60;3.45;;;;;;;22.05;52.31;101669.03;1721970;83;20995;-72
2021/06/05 08:35:22;;;;;;;18.35;3.50;;;;;;;22.19;51.79;101667.67;1722462;83;21019;-71
2021/06/05 08:37:50;;;;;;;7.80;2.85;;;;;;;22.25;50.32;101664.42;1722287;83;21025;-72
2021/06/05 08:40:25;;;;;;;4.80;2.20;;;;;;;22.31;48.96;101667.77;1722548;83;21503;-70
2021/06/05 08:42:52;;;;;;;6.92;2.42;;;;;;;22.39;42.00;101673.14;1722411;83;20940;-76
2021/06/05 08:45:28;;;;;;;2.58;1.92;;;;;;;22.40;41.79;101675.30;1722293;83;20980;-72
2021/06/05 08:47:55;;;;;;;6.42;2.50;;;;;;;22.42;42.16;101664.91;1722619;83;21562;-71
2021/06/05 08:50:28;;;;;;;5.58;2.30;;;;;;;22.53;41.99;101662.48;1722367;83;20976;-77
2021/06/05 08:53:06;;;;;;;10.38;2.95;;;;;;;22.69;42.34;101661.30;1722830;83;21900;-75
2021/06/05 08:55:40;;;;;;;6.92;2.80;;;;;;;22.87;45.38;101656.81;1722996;83;20913;-75
2021/06/05 08:58:39;;;;;;;5.72;2.05;;;;;;;23.05;45.83;101652.27;1722503;83;21000;-77
2021/06/05 09:01:13;;;;;;;4.20;1.85;;;;;;;23.17;42.50;101652.31;1722751;83;20993;-73
2021/06/05 09:03:40;;;;;;;5.47;2.12;;;;;;;23.29;40.26;101648.08;1722490;83;20976;-75
2021/06/05 09:06:40;;;;;;;7.47;2.25;;;;;;;23.30;38.75;101647.90;1722494;83;21095;-71
2021/06/05 09:09:15;;;;;;;5.10;2.12;;;;;;;23.30;35.95;101646.57;1722728;83;20925;-73
2021/06/05 09:11:42;;;;;;;7.45;2.20;;;;;;;23.32;37.25;101645.11;1722566;83;21680;-70
2021/06/05 09:14:09;;;;;;;3.80;2.40;;;;;;;23.46;38.15;101652.45;1722358;83;21087;-75
2021/06/05 09:16:46;;;;;;;5.72;2.30;;;;;;;23.60;34.73;101648.70;1723641;83;21165;-73
2021/06/05 09:19:28;;;;;;;4.12;1.80;;;;;;;23.61;36.79;101650.86;1730619;83;21148;-72
2021/06/05 09:22:09;;;;;;;6.47;2.10;;;;;;;23.58;32.61;101640.59;1731044;82;21043;-69
2021/06/05 09:24:45;;;;;;;3.52;1.77;;;;;;;23.45;33.49;101642.34;1730893;83;21039;-72
2021/06/05 09:27:23;;;;;;;4.67;2.27;;;;;;;23.43;33.95;101646.98;1730962;82;21047;-72
2021/06/05 09:30:05;;;;;;;3.47;2.00;;;;;;;23.40;33.16;101639.36;1730202;83;36085;-72
2021/06/05 09:33:00;;;;;;;6.28;1.82;;;;;;;23.39;33.25;101635.53;1730881;83;21114;-71
2021/06/05 09:35:31;;;;;;;6.42;2.17;;;;;;;23.33;33.10;101634.33;1730593;83;21056;-76
2021/06/05 09:38:21;;;;;;;2.47;1.90;;;;;;;23.33;36.00;101633.50;1730650;83;21035;-73
2021/06/05 09:41:20;;;;;;;4.00;2.20;;;;;;;23.39;34.57;101628.91;1730831;83;20960;-72
2021/06/05 09:43:49;;;;;;;5.33;2.45;;;;;;;23.48;34.79;101626.65;1730726;83;21040;-72
2021/06/05 09:46:28;;;;;;;6.72;2.02;;;;;;;23.58;34.91;101625.50;1730628;83;21185;-76
2021/06/05 09:49:21;;;;;;;2.37;1.95;;;;;;;23.64;34.17;101629.34;1730643;83;21783;-76
2021/06/05 09:52:02;;;;;;;2.83;2.47;;;;;;;23.52;33.00;101628.80;1717171;83;20960;-72
2021/06/05 09:54:38;;;;;;;4.47;1.92;;;;;;;23.47;34.25;101631.60;1675547;83;20916;-68
2021/06/05 09:57:30;;;;;;;2.42;1.92;;;;;;;23.59;34.65;101624.52;1730549;83;20979;-77
2021/06/05 10:00:30;;;;;;;5.00;1.80;;;;;;;23.91;33.25;101622.90;1730746;83;21134;-78
2021/06/05 10:03:26;;;;;;;2.90;1.75;;;;;;;24.22;34.55;101624.77;1729816;82;20948;-71
2021/06/05 10:05:55;;;;;;;4.20;2.35;;;;;;;24.50;34.42;101619.95;1730694;83;21530;-70
2021/06/05 10:08:41;;;;;;;3.02;1.57;;;;;;;24.71;32.30;101623.37;1730948;83;21043;-72
2021/06/05 10:11:33;;;;;;;2.95;1.52;;;;;;;24.85;31.50;101616.58;1730840;82;20965;-75
2021/06/05 10:14:12;;;;;;;5.05;2.02;;;;;;;24.98;31.82;101612.38;1730991;83;21039;-72
2021/06/05 10:16:43;;;;;;;4.12;1.70;;;;;;;25.02;31.25;101614.17;1730484;82;21058;-76
2021/06/05 10:19:40;;;;;;;4.08;1.85;;;;;;;24.99;30.99;101615.34;1722422;83;21571;-72
2021/06/05 10:22:07;;;;;;;7.15;1.80;;;;;;;24.96;29.77;101607.72;1722391;83;21104;-75
2021/06/05 10:24:47;;;;;;;4.15;1.77;;;;;;;24.97;28.34;101611.22;1722553;83;21004;-78
2021/06/05 10:27:29;;;;;;;;;;;;;;;24.94;29.21;101608.91;1724960;83;20988;-75
2021/06/05 10:30:25;;;;;;;2.95;1.50;;;;;;;24.98;29.69;101604.91;1722185;83;20125;-72
2021/06/05 10:32:52;;;;;;;4.20;1.67;;;;;;;24.99;29.65;101606.05;1722575;83;20973;-73
2021/06/05 10:35:36;;;;;;;7.37;2.10;;;;;;;25.00;29.45;101598.92;1722371;83;21033;-74
2021/06/05 10:38:37;;;;;;;5.97;1.72;;;;;;;24.91;28.30;101598.63;1722360;83;21094;-73
2021/06/05 10:41:05;;;;;;;4.58;1.92;;;;;;;24.88;29.28;101593.66;1722557;83;21110;-75
2021/06/05 10:43:34;;;;;;;6.17;1.90;;;;;;;24.84;29.46;101598.48;1702535;83;21012;-72
2021/06/05 10:46:09;;;;;;;4.30;1.80;;;;;;;24.91;30.40;101593.31;1722498;83;21007;-71
2021/06/05 10:48:41;;;;;;;4.78;1.72;;;;;;;24.99;30.74;101589.28;1707739;83;21051;-77
2021/06/05 10:51:27;;;;;;;4.47;1.50;;;;;;;25.11;31.63;101591.91;1723031;83;21068;-77
2021/06/05 10:54:10;;;;;;;3.65;2.10;;;;;;;25.17;31.85;101578.77;1722433;83;21074;-72
2021/06/05 10:57:09;;;;;;;5.35;1.80;;;;;;;25.19;30.04;101583.89;1722341;83;21107;-79
2021/06/05 10:59:57;;;;;;;6.87;1.90;;;;;;;25.17;29.63;101586.73;1722668;83;21075;-72
2021/06/05 11:02:46;;;;;;;3.67;1.90;;;;;;;25.24;30.15;101575.72;1722378;83;20964;-71
2021/06/05 11:05:29;;;;;;;5.42;2.10;;;;;;;25.33;31.75;101569.05;1722687;83;21003;-79
2021/06/05 11:08:20;;;;;;;10.65;2.20;;;;;;;25.32;30.73;101566.05;1674037;83;21903;-79
2021/06/05 11:11:04;;;;;;;9.33;2.30;;;;;;;25.19;31.07;101563.47;1722373;83;20909;-74
2021/06/05 11:13:42;;;;;;;4.90;2.05;;;;;;;25.25;31.20;101557.95;1722662;83;21490;-76
2021/06/05 11:16:14;;;;;;;2.92;2.00;;;;;;;25.50;31.72;101562.64;1722554;83;21084;-72
2021/06/05 11:19:00;;;;;;;9.53;2.35;;;;;;;25.62;32.46;101567.36;1729089;83;21578;-73
2021/06/05 11:21:43;;;;;;;10.15;3.60;;;;;;;25.58;31.68;101563.43;1730773;83;20901;-73
2021/06/05 11:24:17;;;;;;;6.13;2.10;;;;;;;25.62;32.64;101565.23;1730984;83;21598;-76
2021/06/05 11:26:53;;;;;;;4.97;1.95;;;;;;;25.57;32.05;101564.92;1730788;83;20960;-70
2021/06/05 11:29:32;;;;;;;4.20;2.08;;;;;;;25.40;31.36;101560.70;1730739;83;21020;-71
2021/06/05 11:32:06;;;;;;;3.22;1.90;;;;;;;25.39;32.11;101554.55;1730828;83;20944;-77
2021/06/05 11:34:47;;;;;;;3.90;1.87;;;;;;;25.61;32.46;101550.28;1704320;83;21144;-73
2021/06/05 11:37:23;;;;;;;5.90;2.15;;;;;;;25.85;32.60;101547.42;1730763;83;20999;-73
2021/06/05 11:39:59;;;;;;;4.72;2.10;;;;;;;26.09;32.79;101550.38;1730735;82;21558;-73
2021/06/05 11:42:36;;;;;;;3.45;1.72;;;;;;;26.28;31.55;101550.72;1730855;83;20921;-77
2021/06/05 11:45:28;;;;;;;3.20;2.30;;;;;;;26.21;30.13;101552.45;1730988;83;21016;-70
2021/06/05 11:47:55;;;;;;;2.33;1.80;;;;;;;25.95;30.16;101550.66;1730745;83;21805;-76
2021/06/05 11:50:33;;;;;;;5.53;2.10;;;;;;;26.00;29.95;101545.64;1730858;83;20999;-76